RYR41CG EGGD-LIME
Flight info
| Callsign | RYR41CG |
|---|---|
| Flight time | 1h 44m |
| Altitude | 37000 |
| Route | YORQI L607 BIG UL9 KONAN UL607 KOK M150 PITES DCT KRH DCT BATUB M738 LORLO Y740 ATPED M984 LUSIL T772 EKLIB |
| Aircraft | B38M/M-SDE1FGHILORVWXY/HB1 |
Departure
| Time | 2026-05-04 14:53 |
|---|---|
| Airport | Bristol Airport (EGGD) |
Arrival
| Time | 2026-05-04 16:38 |
|---|---|
| Airport | Il Caravaggio International Airport (LIME) |
| Time | Latitude | Longitude | Altitude | Speed | Heading |
|---|---|---|---|---|---|
| 2026-05-04 14:27 | 51.38548 | -2.71469 | 614 ft | 0 kts | 356° |
| 2026-05-04 14:43 | 51.38534 | -2.71467 | 629 ft | 3 kts | 353° |
| 2026-05-04 14:44 | 51.38516 | -2.71461 | 619 ft | 2 kts | 336° |
| 2026-05-04 14:44 | 51.38505 | -2.71448 | 627 ft | 2 kts | 303° |
| 2026-05-04 14:44 | 51.38500 | -2.71433 | 623 ft | 1 kts | 294° |
| 2026-05-04 14:44 | 51.38496 | -2.71421 | 627 ft | 1 kts | 292° |
| 2026-05-04 14:45 | 51.38494 | -2.71413 | 626 ft | 0 kts | 292° |
| 2026-05-04 14:49 | 51.38496 | -2.71429 | 629 ft | 6 kts | 272° |
| 2026-05-04 14:50 | 51.38476 | -2.71567 | 620 ft | 16 kts | 256° |
| 2026-05-04 14:50 | 51.38450 | -2.71769 | 613 ft | 21 kts | 255° |
| 2026-05-04 14:50 | 51.38428 | -2.72004 | 619 ft | 22 kts | 272° |
| 2026-05-04 14:50 | 51.38423 | -2.72233 | 614 ft | 20 kts | 267° |
| 2026-05-04 14:51 | 51.38414 | -2.72447 | 617 ft | 19 kts | 266° |
| 2026-05-04 14:51 | 51.38405 | -2.72665 | 623 ft | 20 kts | 266° |
| 2026-05-04 14:51 | 51.38396 | -2.72896 | 625 ft | 21 kts | 266° |
| 2026-05-04 14:51 | 51.38386 | -2.73140 | 617 ft | 22 kts | 267° |
| 2026-05-04 14:52 | 51.38337 | -2.73318 | 622 ft | 19 kts | 210° |
| 2026-05-04 14:52 | 51.38240 | -2.73306 | 631 ft | 12 kts | 141° |
| 2026-05-04 14:52 | 51.38218 | -2.73208 | 632 ft | 0 kts | 86° |
| 2026-05-04 14:52 | 51.38218 | -2.73201 | 630 ft | 6 kts | 85° |
| 2026-05-04 14:53 | 51.38237 | -2.72783 | 631 ft | 72 kts | 86° |
| 2026-05-04 14:53 | 51.38262 | -2.72083 | 621 ft | 120 kts | 86° |
| 2026-05-04 14:53 | 51.38341 | -2.69695 | 888 ft | 182 kts | 88° |
| 2026-05-04 14:53 | 51.38358 | -2.68380 | 1604 ft | 179 kts | 89° |
| 2026-05-04 14:54 | 51.38421 | -2.65685 | 2639 ft | 186 kts | 86° |
| 2026-05-04 14:54 | 51.38478 | -2.64266 | 2975 ft | 192 kts | 86° |
| 2026-05-04 14:54 | 51.38572 | -2.61289 | 3872 ft | 207 kts | 86° |
| 2026-05-04 14:54 | 51.38659 | -2.58911 | 4624 ft | 224 kts | 86° |
| 2026-05-04 14:55 | 51.38932 | -2.56352 | 5137 ft | 245 kts | 67° |
| 2026-05-04 14:55 | 51.39515 | -2.54734 | 5434 ft | 255 kts | 49° |
| 2026-05-04 14:55 | 51.40940 | -2.52923 | 5874 ft | 271 kts | 25° |
| 2026-05-04 14:55 | 51.42754 | -2.51953 | 6287 ft | 289 kts | 19° |
| 2026-05-04 14:56 | 51.44568 | -2.50375 | 6702 ft | 307 kts | 33° |
| 2026-05-04 14:56 | 51.46416 | -2.48475 | 7100 ft | 326 kts | 32° |
| 2026-05-04 14:56 | 51.48391 | -2.46476 | 7491 ft | 344 kts | 32° |
| 2026-05-04 14:56 | 51.50365 | -2.44209 | 7892 ft | 356 kts | 45° |
| 2026-05-04 14:57 | 51.51723 | -2.40829 | 8296 ft | 372 kts | 70° |
| 2026-05-04 14:57 | 51.52099 | -2.36699 | 8732 ft | 379 kts | 95° |
| 2026-05-04 14:57 | 51.51685 | -2.32486 | 9213 ft | 386 kts | 98° |
| 2026-05-04 14:57 | 51.51314 | -2.28196 | 9653 ft | 389 kts | 97° |
| 2026-05-04 14:58 | 51.50961 | -2.23874 | 10107 ft | 392 kts | 97° |
| 2026-05-04 14:58 | 51.50619 | -2.19516 | 10552 ft | 395 kts | 97° |
| 2026-05-04 14:58 | 51.50295 | -2.15139 | 11012 ft | 397 kts | 96° |
| 2026-05-04 14:58 | 51.49988 | -2.10719 | 11458 ft | 400 kts | 96° |
| 2026-05-04 14:59 | 51.49677 | -2.06278 | 11918 ft | 402 kts | 96° |
| 2026-05-04 14:59 | 51.49372 | -2.01957 | 12349 ft | 404 kts | 96° |
| 2026-05-04 14:59 | 51.48729 | -1.92930 | 13257 ft | 410 kts | 96° |
| 2026-05-04 15:00 | 51.48405 | -1.88414 | 13706 ft | 413 kts | 96° |
| 2026-05-04 15:00 | 51.48074 | -1.83828 | 14156 ft | 415 kts | 96° |
| 2026-05-04 15:00 | 51.47738 | -1.79201 | 14607 ft | 418 kts | 97° |
| 2026-05-04 15:01 | 51.47057 | -1.69884 | 15512 ft | 424 kts | 97° |
| 2026-05-04 15:01 | 51.46529 | -1.65283 | 15964 ft | 426 kts | 102° |
| 2026-05-04 15:01 | 51.45901 | -1.60682 | 16408 ft | 429 kts | 102° |
| 2026-05-04 15:01 | 51.45268 | -1.55923 | 16862 ft | 432 kts | 102° |
| 2026-05-04 15:02 | 51.44870 | -1.52888 | 17160 ft | 434 kts | 102° |
| 2026-05-04 15:02 | 51.44488 | -1.49968 | 17442 ft | 435 kts | 102° |
| 2026-05-04 15:02 | 51.43847 | -1.45266 | 18285 ft | 435 kts | 104° |
| 2026-05-04 15:02 | 51.43200 | -1.40600 | 19221 ft | 425 kts | 104° |
| 2026-05-04 15:03 | 51.42565 | -1.36010 | 20107 ft | 419 kts | 104° |
| 2026-05-04 15:03 | 51.41945 | -1.31534 | 21003 ft | 412 kts | 104° |
| 2026-05-04 15:03 | 51.41327 | -1.27087 | 21919 ft | 406 kts | 104° |
| 2026-05-04 15:03 | 51.40718 | -1.22715 | 22888 ft | 397 kts | 104° |
| 2026-05-04 15:04 | 51.40122 | -1.18447 | 23838 ft | 388 kts | 105° |
| 2026-05-04 15:04 | 51.39620 | -1.14257 | 24675 ft | 379 kts | 98° |
| 2026-05-04 15:04 | 51.39405 | -1.10137 | 25570 ft | 366 kts | 98° |
| 2026-05-04 15:04 | 51.39193 | -1.06156 | 26500 ft | 350 kts | 98° |
| 2026-05-04 15:05 | 51.39002 | -1.02493 | 27081 ft | 348 kts | 98° |
| 2026-05-04 15:05 | 51.38799 | -0.98563 | 27062 ft | 361 kts | 98° |
| 2026-05-04 15:05 | 51.38591 | -0.94545 | 27463 ft | 359 kts | 98° |
| 2026-05-04 15:05 | 51.38384 | -0.90585 | 28039 ft | 355 kts | 99° |
| 2026-05-04 15:06 | 51.38218 | -0.87418 | 28495 ft | 350 kts | 99° |
| 2026-05-04 15:06 | 51.38088 | -0.84954 | 28853 ft | 346 kts | 99° |
| 2026-05-04 15:06 | 51.37906 | -0.81503 | 29374 ft | 339 kts | 99° |
| 2026-05-04 15:07 | 51.37516 | -0.74174 | 30482 ft | 320 kts | 99° |
| 2026-05-04 15:07 | 51.37329 | -0.70692 | 30942 ft | 310 kts | 100° |
| 2026-05-04 15:07 | 51.37144 | -0.67284 | 31215 ft | 305 kts | 99° |
| 2026-05-04 15:07 | 51.36960 | -0.63910 | 31370 ft | 303 kts | 99° |
| 2026-05-04 15:08 | 51.36776 | -0.60554 | 31472 ft | 303 kts | 99° |
| 2026-05-04 15:08 | 51.36405 | -0.53818 | 31604 ft | 306 kts | 99° |
| 2026-05-04 15:09 | 51.36025 | -0.46993 | 31652 ft | 310 kts | 99° |
| 2026-05-04 15:09 | 51.35828 | -0.43497 | 31470 ft | 322 kts | 99° |
| 2026-05-04 15:09 | 51.35623 | -0.39869 | 31324 ft | 331 kts | 99° |
| 2026-05-04 15:10 | 51.35207 | -0.32548 | 31348 ft | 343 kts | 99° |
| 2026-05-04 15:10 | 51.34987 | -0.28722 | 31358 ft | 349 kts | 99° |
| 2026-05-04 15:10 | 51.34529 | -0.20819 | 31362 ft | 364 kts | 99° |
| 2026-05-04 15:11 | 51.34299 | -0.16884 | 31363 ft | 371 kts | 99° |
| 2026-05-04 15:11 | 51.33803 | -0.08462 | 31338 ft | 390 kts | 99° |
| 2026-05-04 15:12 | 51.33278 | 0.00362 | 31315 ft | 408 kts | 99° |
| 2026-05-04 15:12 | 51.32308 | 0.09431 | 31404 ft | 420 kts | 104° |
| 2026-05-04 15:13 | 51.31184 | 0.18745 | 31612 ft | 433 kts | 104° |
| 2026-05-04 15:13 | 51.30622 | 0.23496 | 31765 ft | 438 kts | 104° |
| 2026-05-04 15:13 | 51.30054 | 0.28294 | 31887 ft | 442 kts | 104° |
| 2026-05-04 15:13 | 51.29465 | 0.33145 | 32058 ft | 446 kts | 104° |
| 2026-05-04 15:14 | 51.28858 | 0.38023 | 32234 ft | 450 kts | 104° |
| 2026-05-04 15:14 | 51.28247 | 0.42942 | 32413 ft | 453 kts | 104° |
| 2026-05-04 15:14 | 51.27629 | 0.47898 | 32605 ft | 456 kts | 104° |
| 2026-05-04 15:14 | 51.27007 | 0.52877 | 32818 ft | 459 kts | 104° |
| 2026-05-04 15:15 | 51.26377 | 0.57892 | 33042 ft | 462 kts | 105° |
| 2026-05-04 15:15 | 51.25740 | 0.62919 | 33273 ft | 463 kts | 105° |
| 2026-05-04 15:15 | 51.25106 | 0.67911 | 33487 ft | 465 kts | 105° |
| 2026-05-04 15:16 | 51.23816 | 0.78032 | 33943 ft | 466 kts | 105° |
| 2026-05-04 15:16 | 51.23167 | 0.83102 | 34125 ft | 465 kts | 105° |
| 2026-05-04 15:16 | 51.21866 | 0.93207 | 34451 ft | 465 kts | 105° |
| 2026-05-04 15:17 | 51.21209 | 0.98274 | 34609 ft | 466 kts | 105° |
| 2026-05-04 15:17 | 51.19893 | 1.08385 | 34902 ft | 466 kts | 105° |
| 2026-05-04 15:17 | 51.19231 | 1.13444 | 35047 ft | 466 kts | 105° |
| 2026-05-04 15:18 | 51.18568 | 1.18495 | 35176 ft | 466 kts | 105° |
| 2026-05-04 15:18 | 51.17900 | 1.23563 | 35303 ft | 467 kts | 105° |
| 2026-05-04 15:18 | 51.17231 | 1.28616 | 35434 ft | 467 kts | 105° |
| 2026-05-04 15:19 | 51.16136 | 1.38827 | 35641 ft | 470 kts | 97° |
| 2026-05-04 15:19 | 51.15885 | 1.44010 | 35752 ft | 470 kts | 97° |
| 2026-05-04 15:19 | 51.15384 | 1.54321 | 35947 ft | 471 kts | 97° |
| 2026-05-04 15:20 | 51.14874 | 1.64721 | 36127 ft | 471 kts | 97° |
| 2026-05-04 15:20 | 51.14355 | 1.75125 | 36294 ft | 471 kts | 97° |
| 2026-05-04 15:21 | 51.13827 | 1.85524 | 36335 ft | 470 kts | 97° |
| 2026-05-04 15:21 | 51.13291 | 1.95910 | 36567 ft | 472 kts | 97° |
| 2026-05-04 15:22 | 51.13018 | 2.01113 | 36684 ft | 472 kts | 97° |
| 2026-05-04 15:22 | 51.12744 | 2.06316 | 36798 ft | 472 kts | 97° |
| 2026-05-04 15:22 | 51.12188 | 2.16703 | 36992 ft | 472 kts | 97° |
| 2026-05-04 15:23 | 51.11621 | 2.27132 | 36984 ft | 471 kts | 97° |
| 2026-05-04 15:23 | 51.11046 | 2.37518 | 36982 ft | 471 kts | 98° |
| 2026-05-04 15:24 | 51.09870 | 2.58296 | 36988 ft | 471 kts | 98° |
| 2026-05-04 15:25 | 51.08286 | 2.68224 | 36992 ft | 460 kts | 120° |
| 2026-05-04 15:26 | 51.03936 | 2.81800 | 36989 ft | 462 kts | 121° |
| 2026-05-04 15:26 | 50.99431 | 2.95335 | 36985 ft | 462 kts | 121° |
| 2026-05-04 15:27 | 50.94900 | 3.08831 | 36977 ft | 462 kts | 121° |
| 2026-05-04 15:28 | 50.90355 | 3.22296 | 36967 ft | 462 kts | 121° |
| 2026-05-04 15:29 | 50.85798 | 3.35724 | 36962 ft | 462 kts | 121° |
| 2026-05-04 15:30 | 50.75114 | 3.66927 | 36970 ft | 462 kts | 122° |
| 2026-05-04 15:31 | 50.70523 | 3.80218 | 36955 ft | 462 kts | 122° |
| 2026-05-04 15:32 | 50.62785 | 4.02464 | 36963 ft | 463 kts | 122° |
| 2026-05-04 15:34 | 50.55001 | 4.24647 | 36965 ft | 463 kts | 122° |
| 2026-05-04 15:34 | 50.50313 | 4.37914 | 36962 ft | 463 kts | 122° |
| 2026-05-04 15:35 | 50.45605 | 4.51168 | 36975 ft | 463 kts | 123° |
| 2026-05-04 15:36 | 50.40882 | 4.64396 | 36971 ft | 464 kts | 123° |
| 2026-05-04 15:36 | 50.37742 | 4.73154 | 36937 ft | 464 kts | 123° |
| 2026-05-04 15:37 | 50.34593 | 4.81906 | 36967 ft | 464 kts | 123° |
| 2026-05-04 15:37 | 50.31414 | 4.90712 | 36966 ft | 464 kts | 123° |
| 2026-05-04 15:38 | 50.28235 | 4.99485 | 36974 ft | 464 kts | 123° |
| 2026-05-04 15:38 | 50.25044 | 5.08264 | 36973 ft | 464 kts | 123° |
| 2026-05-04 15:39 | 50.21851 | 5.17023 | 36976 ft | 464 kts | 123° |
| 2026-05-04 15:40 | 50.17046 | 5.30157 | 36975 ft | 464 kts | 123° |
| 2026-05-04 15:40 | 50.13829 | 5.38892 | 36975 ft | 464 kts | 124° |
| 2026-05-04 15:41 | 50.10610 | 5.47600 | 36982 ft | 464 kts | 124° |
| 2026-05-04 15:41 | 50.07385 | 5.56310 | 36985 ft | 464 kts | 124° |
| 2026-05-04 15:42 | 50.04151 | 5.65011 | 36981 ft | 464 kts | 124° |
| 2026-05-04 15:42 | 50.00915 | 5.73689 | 36988 ft | 464 kts | 124° |
| 2026-05-04 15:43 | 49.97667 | 5.82373 | 37000 ft | 464 kts | 124° |
| 2026-05-04 15:43 | 49.94418 | 5.91027 | 36989 ft | 464 kts | 124° |
| 2026-05-04 15:44 | 49.91165 | 5.99665 | 36985 ft | 464 kts | 124° |
| 2026-05-04 15:44 | 49.87929 | 6.08231 | 36994 ft | 464 kts | 124° |
| 2026-05-04 15:45 | 49.84826 | 6.17013 | 36988 ft | 465 kts | 122° |
| 2026-05-04 15:45 | 49.81811 | 6.25887 | 37014 ft | 465 kts | 122° |
| 2026-05-04 15:46 | 49.78781 | 6.34730 | 36979 ft | 465 kts | 122° |
| 2026-05-04 15:46 | 49.75744 | 6.43559 | 36980 ft | 465 kts | 122° |
| 2026-05-04 15:47 | 49.72709 | 6.52374 | 36991 ft | 465 kts | 122° |
| 2026-05-04 15:47 | 49.69682 | 6.61211 | 36987 ft | 465 kts | 122° |
| 2026-05-04 15:48 | 49.66653 | 6.70016 | 36980 ft | 465 kts | 122° |
| 2026-05-04 15:48 | 49.62089 | 6.83227 | 36979 ft | 465 kts | 122° |
| 2026-05-04 15:49 | 49.59039 | 6.92017 | 36986 ft | 465 kts | 122° |
| 2026-05-04 15:49 | 49.56000 | 7.00743 | 36986 ft | 465 kts | 122° |
| 2026-05-04 15:50 | 49.52937 | 7.09511 | 36986 ft | 465 kts | 123° |
| 2026-05-04 15:50 | 49.49867 | 7.18270 | 36980 ft | 465 kts | 123° |
| 2026-05-04 15:51 | 49.46790 | 7.27018 | 36976 ft | 465 kts | 123° |
| 2026-05-04 15:51 | 49.44226 | 7.34287 | 36974 ft | 465 kts | 123° |
| 2026-05-04 15:52 | 49.41137 | 7.43012 | 36968 ft | 465 kts | 123° |
| 2026-05-04 15:52 | 49.38044 | 7.51722 | 36970 ft | 465 kts | 123° |
| 2026-05-04 15:53 | 49.34938 | 7.60438 | 36972 ft | 465 kts | 123° |
| 2026-05-04 15:53 | 49.31825 | 7.69143 | 36971 ft | 466 kts | 123° |
| 2026-05-04 15:54 | 49.28703 | 7.77846 | 36975 ft | 466 kts | 123° |
| 2026-05-04 15:54 | 49.25574 | 7.86540 | 36982 ft | 466 kts | 123° |
| 2026-05-04 15:55 | 49.22459 | 7.95164 | 36978 ft | 466 kts | 123° |
| 2026-05-04 15:55 | 49.19318 | 8.03834 | 36982 ft | 466 kts | 123° |
| 2026-05-04 15:56 | 49.16154 | 8.12535 | 36979 ft | 470 kts | 123° |
| 2026-05-04 15:56 | 49.13263 | 8.20463 | 36970 ft | 470 kts | 123° |
| 2026-05-04 15:57 | 49.10071 | 8.29186 | 36976 ft | 471 kts | 123° |
| 2026-05-04 15:57 | 49.06872 | 8.37901 | 36970 ft | 471 kts | 123° |
| 2026-05-04 15:58 | 49.03671 | 8.46599 | 36977 ft | 471 kts | 123° |
| 2026-05-04 15:58 | 49.00430 | 8.55268 | 36968 ft | 469 kts | 128° |
| 2026-05-04 15:59 | 48.98305 | 8.58931 | 36953 ft | 457 kts | 145° |
| 2026-05-04 15:59 | 48.95759 | 8.61794 | 36979 ft | 456 kts | 148° |
| 2026-05-04 15:59 | 48.90561 | 8.67349 | 36972 ft | 457 kts | 149° |
| 2026-05-04 16:00 | 48.85336 | 8.72748 | 36968 ft | 457 kts | 150° |
| 2026-05-04 16:00 | 48.80070 | 8.78132 | 36969 ft | 457 kts | 150° |
| 2026-05-04 16:01 | 48.74799 | 8.83503 | 36960 ft | 456 kts | 150° |
| 2026-05-04 16:01 | 48.69525 | 8.88864 | 36961 ft | 456 kts | 150° |
| 2026-05-04 16:02 | 48.64245 | 8.94218 | 36971 ft | 457 kts | 150° |
| 2026-05-04 16:03 | 48.56314 | 9.02231 | 36954 ft | 457 kts | 150° |
| 2026-05-04 16:03 | 48.51016 | 9.07569 | 36968 ft | 458 kts | 150° |
| 2026-05-04 16:04 | 48.45754 | 9.12856 | 36973 ft | 458 kts | 150° |
| 2026-05-04 16:04 | 48.37799 | 9.20823 | 36969 ft | 458 kts | 150° |
| 2026-05-04 16:05 | 48.33196 | 9.25420 | 36963 ft | 458 kts | 150° |
| 2026-05-04 16:06 | 48.25215 | 9.33366 | 36959 ft | 459 kts | 150° |
| 2026-05-04 16:07 | 48.14547 | 9.43940 | 36953 ft | 460 kts | 150° |
| 2026-05-04 16:08 | 48.03869 | 9.54473 | 36954 ft | 460 kts | 150° |
| 2026-05-04 16:09 | 47.90860 | 9.68462 | 36953 ft | 461 kts | 147° |
| 2026-05-04 16:11 | 47.84307 | 9.75504 | 36959 ft | 462 kts | 147° |
| 2026-05-04 16:12 | 47.68641 | 9.92248 | 36966 ft | 463 kts | 147° |
| 2026-05-04 16:13 | 47.58166 | 10.03373 | 36971 ft | 464 kts | 148° |
| 2026-05-04 16:14 | 47.47984 | 10.14134 | 36987 ft | 465 kts | 148° |
| 2026-05-04 16:16 | 47.34481 | 10.27019 | 36994 ft | 463 kts | 151° |
| 2026-05-04 16:17 | 47.20764 | 10.39395 | 35854 ft | 462 kts | 152° |
| 2026-05-04 16:18 | 47.12824 | 10.46518 | 33674 ft | 465 kts | 151° |
| 2026-05-04 16:18 | 47.10051 | 10.49000 | 32782 ft | 466 kts | 151° |
| 2026-05-04 16:19 | 47.01190 | 10.54094 | 30500 ft | 458 kts | 180° |
| 2026-05-04 16:19 | 46.94885 | 10.53259 | 28918 ft | 461 kts | 187° |
| 2026-05-04 16:20 | 46.85375 | 10.51991 | 26636 ft | 452 kts | 186° |
| 2026-05-04 16:20 | 46.79188 | 10.51186 | 25214 ft | 444 kts | 186° |
| 2026-05-04 16:21 | 46.70063 | 10.50006 | 23116 ft | 432 kts | 186° |
| 2026-05-04 16:22 | 46.64135 | 10.49241 | 21600 ft | 423 kts | 186° |
| 2026-05-04 16:22 | 46.55484 | 10.48126 | 19457 ft | 409 kts | 187° |
| 2026-05-04 16:23 | 46.47110 | 10.47053 | 19115 ft | 409 kts | 187° |
| 2026-05-04 16:24 | 46.35864 | 10.45620 | 19141 ft | 410 kts | 186° |
| 2026-05-04 16:25 | 46.30179 | 10.44897 | 19128 ft | 409 kts | 186° |
| 2026-05-04 16:26 | 46.19456 | 10.43261 | 19123 ft | 408 kts | 198° |
| 2026-05-04 16:26 | 46.13182 | 10.35768 | 18351 ft | 398 kts | 239° |
| 2026-05-04 16:27 | 46.10492 | 10.28850 | 17427 ft | 393 kts | 242° |
| 2026-05-04 16:28 | 46.06738 | 10.18485 | 16099 ft | 386 kts | 242° |
| 2026-05-04 16:28 | 46.02072 | 10.09391 | 14811 ft | 377 kts | 219° |
| 2026-05-04 16:29 | 45.94968 | 10.01433 | 12493 ft | 348 kts | 217° |
| 2026-05-04 16:30 | 45.91742 | 9.97895 | 10738 ft | 354 kts | 217° |
| 2026-05-04 16:31 | 45.87797 | 9.93578 | 8615 ft | 358 kts | 217° |
| 2026-05-04 16:31 | 45.83228 | 9.88586 | 6210 ft | 353 kts | 217° |
| 2026-05-04 16:32 | 45.77837 | 9.82719 | 4317 ft | 284 kts | 217° |
| 2026-05-04 16:33 | 45.74984 | 9.79620 | 4061 ft | 236 kts | 217° |
| 2026-05-04 16:33 | 45.72279 | 9.78070 | 3690 ft | 206 kts | 175° |
| 2026-05-04 16:34 | 45.69868 | 9.79785 | 2550 ft | 211 kts | 137° |
| 2026-05-04 16:34 | 45.68825 | 9.81209 | 2069 ft | 200 kts | 139° |
| 2026-05-04 16:35 | 45.65470 | 9.84224 | 1987 ft | 182 kts | 198° |
| 2026-05-04 16:35 | 45.64952 | 9.80389 | 1425 ft | 150 kts | 290° |
| 2026-05-04 16:36 | 45.65309 | 9.78983 | 1289 ft | 149 kts | 283° |
| 2026-05-04 16:36 | 45.65468 | 9.78021 | 1195 ft | 151 kts | 281° |
| 2026-05-04 16:37 | 45.65834 | 9.75625 | 1126 ft | 154 kts | 287° |
| 2026-05-04 16:37 | 45.66134 | 9.74165 | 989 ft | 153 kts | 283° |
| 2026-05-04 16:37 | 45.66637 | 9.71443 | 799 ft | 121 kts | 287° |
| 2026-05-04 16:38 | 45.66877 | 9.70138 | 789 ft | 3 kts | 285° |